• Join FlightAware (Why Join?)
  • Login
  • US Flag 
08:42AM EST


 

Airport Tracker/Info


-or-


 

Live Flight TrackerFlight Track Log ✈ RAX81 ✈ 17-May-2013 ✈ KTEB - KBOS

Flight Track Log - Related Links

Times and Time Zones

All times are in EDT time to prevent confusion due to time zone crossing. See the RAX81 flight status page for this flight to view local times or setup timezone preferences in your user account.

Time Position Orientation Groundspeed Altitude Reporting Facility
EDT Latitude Longitude Course Direction KTS MPH feet Rate Location/Type
06:00AM 40.9000 -74.0500 North 130 150 2,700  Level New York TRACON
06:01AM 40.9333 -74.0500 360° North 130 150 4,300 1,620 Climbing New York TRACON
06:02AM 40.9667 -74.0333 21° North 141 162 6,000 1,500 Climbing New York TRACON
06:03AM 41.0000 -74.0000 37° Northeast 152 175 7,400 1,380 Climbing New York TRACON
06:04AM 41.0333 -73.9500 49° Northeast 155 178 8,800 1,260 Climbing New York TRACON
06:05AM 41.0667 -73.9167 37° Northeast 168 193 10,000 1,200 Climbing New York TRACON
06:07AM 41.1083 -73.8008 64° Northeast 173 199 12,500 1,080 Climbing Boston Center
06:08AM 41.1319 -73.7492 59° Northeast 173 199 13,400 900 Climbing Boston Center
06:09AM 41.1617 -73.6892 57° Northeast 178 205 14,300 720 Climbing Boston Center
06:10AM 41.1833 -73.6342 62° Northeast 178 205 14,900 300 Climbing Boston Center
06:11AM 41.2153 -73.5547 62° Northeast 195 224 15,000 60 Climbing Boston Center
06:12AM 41.2453 -73.4864 60° Northeast 226 260 15,100  Climbing Boston Center
06:13AM 41.2814 -73.3958 62° Northeast 242 278 15,100  Level Boston Center
06:14AM 41.3072 -73.3050 69° East 247 284 15,100  Level Boston Center
06:15AM 41.3222 -73.2194 77° East 253 291 15,100  Level Boston Center
06:16AM 41.3397 -73.1147 77° East 258 297 15,100 -60 Level Boston Center
06:17AM 41.3569 -73.0319 74° East 258 297 15,000 -120 Descending Boston Center
06:18AM 41.3781 -72.9269 75° East 258 297 14,900 -60 Descending Boston Center
06:19AM 41.3931 -72.8442 76° East 258 297 14,900  Level Boston Center
06:20AM 41.4142 -72.7444 74° East 258 297 14,900  Level Boston Center
06:21AM 41.4311 -72.6617 75° East 258 297 14,900  Level Boston Center
06:22AM 41.4500 -72.5592 76° East 258 297 14,900  Level Boston Center
06:23AM 41.4625 -72.5067 72° East 256 295 14,900  Level Boston Center
06:23AM 41.4667 -72.4761 80° East 258 297 14,900 -420 Level Boston Center
06:24AM 41.5042 -72.3819 62° Northeast 258 297 14,300 -600 Descending Boston Center
06:25AM 41.5353 -72.3014 63° Northeast 265 305 13,800 -660 Descending Boston Center
06:26AM 41.5789 -72.1958 61° Northeast 278 320 13,000 -660 Descending Boston Center
06:27AM 41.6058 -72.1125 67° East 278 320 12,500 -660 Descending Boston Center
06:28AM 41.6431 -72.0039 65° Northeast 278 320 11,700 -720 Descending Boston Center
06:29AM 41.6678 -71.9147 70° East 283 326 11,100 -720 Descending Boston Center
06:30AM 41.7006 -71.8061 68° East 283 326 10,300 -660 Descending Boston Center
06:31AM 41.7417 -71.7417 49° Northeast 260 299 9,800 -840 Descending Boston Center
06:32AM 41.8017 -71.6714 41° Northeast 254 292 8,700 -900 Descending Boston Center
06:33AM 41.8556 -71.6122 39° Northeast 254 292 8,000 -660 Descending Boston Center
06:34AM 41.9092 -71.5531 39° Northeast 249 287 7,400 -600 Descending Boston Center
06:35AM 41.9631 -71.4936 39° Northeast 249 287 6,800 -600 Descending Boston Center
06:36AM 42.0019 -71.4231 53° Northeast 242 278 6,200 -660 Descending Boston Center
06:37AM 42.0261 -71.3306 71° East 248 285 5,500 -600 Descending Boston Center
06:38AM 42.0481 -71.2436 71° East 248 285 5,000 -480 Descending Boston Center
06:39AM 42.0722 -71.1647 68° East 243 280 4,600 -600 Descending Boston Center
06:40AM 42.1111 -71.0911 55° Northeast 231 266 3,800 -780 Descending Boston Center
06:41AM 42.1333 -71.0500 54° Northeast 237 273 3,400 -540 Descending KA90
06:42AM 42.1667 -70.9833 56° Northeast 234 269 3,000 -420 Descending KA90